sensor_id;sensor_type;location;lat;lon;timestamp;P1;durP1;ratioP1;P2;durP2;ratioP2
59273;SDS011;45044;41.572;24.730;2023-10-31T00:00:50;7.03;;;4.45;;
59273;SDS011;45044;41.572;24.730;2023-10-31T00:03:17;9.23;;;4.90;;
59273;SDS011;45044;41.572;24.730;2023-10-31T00:05:44;8.27;;;4.95;;
59273;SDS011;45044;41.572;24.730;2023-10-31T00:08:11;10.18;;;5.40;;
59273;SDS011;45044;41.572;24.730;2023-10-31T00:10:38;10.57;;;5.60;;
59273;SDS011;45044;41.572;24.730;2023-10-31T00:13:04;11.85;;;5.75;;
59273;SDS011;45044;41.572;24.730;2023-10-31T00:15:32;9.43;;;5.75;;
59273;SDS011;45044;41.572;24.730;2023-10-31T00:17:58;10.40;;;5.20;;
59273;SDS011;45044;41.572;24.730;2023-10-31T00:20:25;11.60;;;6.55;;
59273;SDS011;45044;41.572;24.730;2023-10-31T00:22:52;14.30;;;7.07;;
59273;SDS011;45044;41.572;24.730;2023-10-31T00:25:19;14.82;;;6.70;;
59273;SDS011;45044;41.572;24.730;2023-10-31T00:27:46;16.40;;;8.80;;
59273;SDS011;45044;41.572;24.730;2023-10-31T00:30:12;18.17;;;9.75;;
59273;SDS011;45044;41.572;24.730;2023-10-31T00:32:39;15.88;;;9.63;;
59273;SDS011;45044;41.572;24.730;2023-10-31T00:35:06;11.90;;;8.13;;
59273;SDS011;45044;41.572;24.730;2023-10-31T00:37:33;13.45;;;10.07;;
59273;SDS011;45044;41.572;24.730;2023-10-31T00:40:00;14.35;;;9.48;;
59273;SDS011;45044;41.572;24.730;2023-10-31T00:42:27;14.10;;;9.70;;
59273;SDS011;45044;41.572;24.730;2023-10-31T00:44:54;10.60;;;8.13;;
59273;SDS011;45044;41.572;24.730;2023-10-31T00:47:21;11.73;;;6.38;;
59273;SDS011;45044;41.572;24.730;2023-10-31T00:49:47;9.25;;;5.88;;
59273;SDS011;45044;41.572;24.730;2023-10-31T00:52:14;9.25;;;5.68;;
59273;SDS011;45044;41.572;24.730;2023-10-31T00:54:42;8.88;;;5.32;;
59273;SDS011;45044;41.572;24.730;2023-10-31T00:57:08;8.52;;;5.28;;
59273;SDS011;45044;41.572;24.730;2023-10-31T00:59:35;13.30;;;10.45;;
59273;SDS011;45044;41.572;24.730;2023-10-31T01:02:02;11.52;;;8.80;;
59273;SDS011;45044;41.572;24.730;2023-10-31T01:04:29;9.10;;;4.85;;
59273;SDS011;45044;41.572;24.730;2023-10-31T01:06:55;8.18;;;4.57;;
59273;SDS011;45044;41.572;24.730;2023-10-31T01:09:22;7.28;;;4.10;;
59273;SDS011;45044;41.572;24.730;2023-10-31T01:11:49;9.75;;;4.68;;
59273;SDS011;45044;41.572;24.730;2023-10-31T01:14:15;9.65;;;4.72;;
59273;SDS011;45044;41.572;24.730;2023-10-31T01:16:42;6.40;;;4.15;;
59273;SDS011;45044;41.572;24.730;2023-10-31T01:19:09;8.27;;;4.55;;
59273;SDS011;45044;41.572;24.730;2023-10-31T01:21:36;7.55;;;4.13;;
59273;SDS011;45044;41.572;24.730;2023-10-31T01:24:03;9.15;;;4.75;;
59273;SDS011;45044;41.572;24.730;2023-10-31T01:26:30;11.75;;;5.10;;
59273;SDS011;45044;41.572;24.730;2023-10-31T01:28:57;11.20;;;5.63;;
59273;SDS011;45044;41.572;24.730;2023-10-31T01:31:24;8.77;;;4.78;;
59273;SDS011;45044;41.572;24.730;2023-10-31T01:33:51;9.90;;;4.82;;
59273;SDS011;45044;41.572;24.730;2023-10-31T01:36:18;13.35;;;7.15;;
59273;SDS011;45044;41.572;24.730;2023-10-31T01:38:45;14.57;;;6.13;;
59273;SDS011;45044;41.572;24.730;2023-10-31T01:41:12;13.25;;;6.18;;
59273;SDS011;45044;41.572;24.730;2023-10-31T01:43:39;10.43;;;5.50;;
59273;SDS011;45044;41.572;24.730;2023-10-31T01:46:06;9.25;;;5.13;;
59273;SDS011;45044;41.572;24.730;2023-10-31T01:48:33;19.55;;;8.93;;
59273;SDS011;45044;41.572;24.730;2023-10-31T01:51:02;16.85;;;7.15;;
59273;SDS011;45044;41.572;24.730;2023-10-31T01:53:34;14.63;;;6.35;;
59273;SDS011;45044;41.572;24.730;2023-10-31T01:56:03;23.85;;;8.88;;
59273;SDS011;45044;41.572;24.730;2023-10-31T01:58:32;17.83;;;8.07;;
59273;SDS011;45044;41.572;24.730;2023-10-31T02:01:00;27.17;;;10.80;;
59273;SDS011;45044;41.572;24.730;2023-10-31T02:03:27;43.67;;;15.73;;
59273;SDS011;45044;41.572;24.730;2023-10-31T02:05:54;30.35;;;11.80;;
59273;SDS011;45044;41.572;24.730;2023-10-31T02:08:22;23.95;;;9.30;;
59273;SDS011;45044;41.572;24.730;2023-10-31T02:10:49;26.38;;;11.27;;
59273;SDS011;45044;41.572;24.730;2023-10-31T02:13:16;23.50;;;9.75;;
59273;SDS011;45044;41.572;24.730;2023-10-31T02:15:47;22.52;;;9.68;;
59273;SDS011;45044;41.572;24.730;2023-10-31T02:18:14;27.63;;;11.55;;
59273;SDS011;45044;41.572;24.730;2023-10-31T02:20:41;27.88;;;11.02;;
59273;SDS011;45044;41.572;24.730;2023-10-31T02:23:08;23.20;;;8.07;;
59273;SDS011;45044;41.572;24.730;2023-10-31T02:25:35;35.92;;;12.65;;
59273;SDS011;45044;41.572;24.730;2023-10-31T02:28:02;31.80;;;11.63;;
59273;SDS011;45044;41.572;24.730;2023-10-31T02:30:29;19.70;;;8.15;;
59273;SDS011;45044;41.572;24.730;2023-10-31T02:32:56;15.77;;;7.03;;
59273;SDS011;45044;41.572;24.730;2023-10-31T02:35:22;30.10;;;10.48;;
59273;SDS011;45044;41.572;24.730;2023-10-31T02:37:49;31.35;;;10.10;;
59273;SDS011;45044;41.572;24.730;2023-10-31T02:40:18;26.15;;;9.35;;
59273;SDS011;45044;41.572;24.730;2023-10-31T02:42:45;28.65;;;10.50;;
59273;SDS011;45044;41.572;24.730;2023-10-31T02:45:12;37.00;;;12.25;;
59273;SDS011;45044;41.572;24.730;2023-10-31T02:47:38;36.22;;;12.73;;
59273;SDS011;45044;41.572;24.730;2023-10-31T02:50:06;29.20;;;10.27;;
59273;SDS011;45044;41.572;24.730;2023-10-31T02:52:33;34.42;;;11.73;;
59273;SDS011;45044;41.572;24.730;2023-10-31T02:55:00;31.42;;;10.23;;
59273;SDS011;45044;41.572;24.730;2023-10-31T02:57:27;19.52;;;8.10;;
59273;SDS011;45044;41.572;24.730;2023-10-31T02:59:53;15.63;;;7.80;;
59273;SDS011;45044;41.572;24.730;2023-10-31T03:02:20;25.80;;;8.65;;
59273;SDS011;45044;41.572;24.730;2023-10-31T03:04:48;35.63;;;11.00;;
59273;SDS011;45044;41.572;24.730;2023-10-31T03:07:15;24.23;;;8.45;;
59273;SDS011;45044;41.572;24.730;2023-10-31T03:09:42;14.13;;;5.15;;
59273;SDS011;45044;41.572;24.730;2023-10-31T03:12:09;13.85;;;5.00;;
59273;SDS011;45044;41.572;24.730;2023-10-31T03:14:35;15.45;;;5.93;;
59273;SDS011;45044;41.572;24.730;2023-10-31T03:17:02;24.70;;;8.73;;
59273;SDS011;45044;41.572;24.730;2023-10-31T03:19:29;14.13;;;5.78;;
59273;SDS011;45044;41.572;24.730;2023-10-31T03:21:56;16.30;;;5.85;;
59273;SDS011;45044;41.572;24.730;2023-10-31T03:24:23;36.22;;;12.10;;
59273;SDS011;45044;41.572;24.730;2023-10-31T03:26:49;44.05;;;13.07;;
59273;SDS011;45044;41.572;24.730;2023-10-31T03:29:16;18.63;;;8.00;;
59273;SDS011;45044;41.572;24.730;2023-10-31T03:31:43;32.17;;;9.93;;
59273;SDS011;45044;41.572;24.730;2023-10-31T03:34:09;30.13;;;10.48;;
59273;SDS011;45044;41.572;24.730;2023-10-31T03:36:36;79.47;;;24.08;;
59273;SDS011;45044;41.572;24.730;2023-10-31T03:39:03;51.47;;;16.45;;
59273;SDS011;45044;41.572;24.730;2023-10-31T03:41:29;43.72;;;13.95;;
59273;SDS011;45044;41.572;24.730;2023-10-31T03:43:56;23.52;;;8.02;;
59273;SDS011;45044;41.572;24.730;2023-10-31T03:46:23;20.33;;;7.65;;
59273;SDS011;45044;41.572;24.730;2023-10-31T03:48:50;69.43;;;22.48;;
59273;SDS011;45044;41.572;24.730;2023-10-31T03:51:17;29.48;;;10.27;;
59273;SDS011;45044;41.572;24.730;2023-10-31T03:53:43;22.35;;;8.45;;
59273;SDS011;45044;41.572;24.730;2023-10-31T03:56:10;21.63;;;7.35;;
59273;SDS011;45044;41.572;24.730;2023-10-31T03:58:37;18.88;;;8.23;;
59273;SDS011;45044;41.572;24.730;2023-10-31T04:01:04;22.73;;;8.38;;
59273;SDS011;45044;41.572;24.730;2023-10-31T04:03:30;20.67;;;8.18;;
59273;SDS011;45044;41.572;24.730;2023-10-31T04:05:57;20.50;;;8.32;;
59273;SDS011;45044;41.572;24.730;2023-10-31T04:08:24;13.27;;;4.85;;
59273;SDS011;45044;41.572;24.730;2023-10-31T04:10:51;18.25;;;6.35;;
59273;SDS011;45044;41.572;24.730;2023-10-31T04:13:17;13.40;;;5.38;;
59273;SDS011;45044;41.572;24.730;2023-10-31T04:15:44;12.43;;;6.00;;
59273;SDS011;45044;41.572;24.730;2023-10-31T04:18:11;25.55;;;9.60;;
59273;SDS011;45044;41.572;24.730;2023-10-31T04:20:38;26.13;;;13.73;;
59273;SDS011;45044;41.572;24.730;2023-10-31T04:23:04;23.88;;;13.95;;
59273;SDS011;45044;41.572;24.730;2023-10-31T04:25:32;16.92;;;10.30;;
59273;SDS011;45044;41.572;24.730;2023-10-31T04:27:58;15.23;;;10.88;;
59273;SDS011;45044;41.572;24.730;2023-10-31T04:30:25;11.85;;;8.27;;
59273;SDS011;45044;41.572;24.730;2023-10-31T04:32:54;13.90;;;8.32;;
59273;SDS011;45044;41.572;24.730;2023-10-31T04:35:21;16.23;;;8.93;;
59273;SDS011;45044;41.572;24.730;2023-10-31T04:37:47;22.13;;;10.55;;
59273;SDS011;45044;41.572;24.730;2023-10-31T04:40:14;18.02;;;8.77;;
59273;SDS011;45044;41.572;24.730;2023-10-31T04:42:41;13.43;;;9.18;;
59273;SDS011;45044;41.572;24.730;2023-10-31T04:45:08;14.68;;;9.18;;
59273;SDS011;45044;41.572;24.730;2023-10-31T04:47:36;14.57;;;7.15;;
59273;SDS011;45044;41.572;24.730;2023-10-31T04:50:03;13.38;;;7.47;;
59273;SDS011;45044;41.572;24.730;2023-10-31T04:52:31;9.77;;;5.65;;
59273;SDS011;45044;41.572;24.730;2023-10-31T04:54:57;14.38;;;8.52;;
59273;SDS011;45044;41.572;24.730;2023-10-31T04:57:24;18.85;;;9.80;;
59273;SDS011;45044;41.572;24.730;2023-10-31T04:59:51;10.50;;;6.90;;
59273;SDS011;45044;41.572;24.730;2023-10-31T05:02:23;9.80;;;6.40;;
59273;SDS011;45044;41.572;24.730;2023-10-31T05:04:50;11.93;;;6.25;;
59273;SDS011;45044;41.572;24.730;2023-10-31T05:07:17;11.25;;;5.68;;
59273;SDS011;45044;41.572;24.730;2023-10-31T05:09:45;10.23;;;6.07;;
59273;SDS011;45044;41.572;24.730;2023-10-31T05:12:12;9.40;;;5.72;;
59273;SDS011;45044;41.572;24.730;2023-10-31T05:14:39;11.77;;;6.60;;
59273;SDS011;45044;41.572;24.730;2023-10-31T05:17:06;9.52;;;6.75;;
59273;SDS011;45044;41.572;24.730;2023-10-31T05:19:33;10.75;;;6.93;;
59273;SDS011;45044;41.572;24.730;2023-10-31T05:22:00;12.18;;;7.45;;
59273;SDS011;45044;41.572;24.730;2023-10-31T05:24:26;13.07;;;8.48;;
59273;SDS011;45044;41.572;24.730;2023-10-31T05:26:53;16.00;;;8.15;;
59273;SDS011;45044;41.572;24.730;2023-10-31T05:29:20;18.48;;;10.00;;
59273;SDS011;45044;41.572;24.730;2023-10-31T05:31:47;21.60;;;9.43;;
59273;SDS011;45044;41.572;24.730;2023-10-31T05:34:14;17.33;;;9.10;;
59273;SDS011;45044;41.572;24.730;2023-10-31T05:36:41;16.27;;;9.30;;
59273;SDS011;45044;41.572;24.730;2023-10-31T05:39:07;15.52;;;8.20;;
59273;SDS011;45044;41.572;24.730;2023-10-31T05:41:34;14.90;;;8.50;;
59273;SDS011;45044;41.572;24.730;2023-10-31T05:44:01;22.67;;;10.98;;
59273;SDS011;45044;41.572;24.730;2023-10-31T05:46:29;18.60;;;9.38;;
59273;SDS011;45044;41.572;24.730;2023-10-31T05:48:55;24.35;;;10.75;;
59273;SDS011;45044;41.572;24.730;2023-10-31T05:51:22;17.23;;;10.00;;
59273;SDS011;45044;41.572;24.730;2023-10-31T05:53:51;16.92;;;8.07;;
59273;SDS011;45044;41.572;24.730;2023-10-31T05:56:18;14.82;;;8.13;;
59273;SDS011;45044;41.572;24.730;2023-10-31T05:58:45;16.05;;;8.88;;
59273;SDS011;45044;41.572;24.730;2023-10-31T06:01:12;15.02;;;7.43;;
59273;SDS011;45044;41.572;24.730;2023-10-31T06:03:42;13.63;;;8.70;;
59273;SDS011;45044;41.572;24.730;2023-10-31T06:06:11;13.38;;;7.63;;
59273;SDS011;45044;41.572;24.730;2023-10-31T06:08:39;11.73;;;7.78;;
59273;SDS011;45044;41.572;24.730;2023-10-31T06:11:06;11.02;;;6.68;;
59273;SDS011;45044;41.572;24.730;2023-10-31T06:13:33;11.50;;;6.43;;
59273;SDS011;45044;41.572;24.730;2023-10-31T06:16:00;11.15;;;6.45;;
59273;SDS011;45044;41.572;24.730;2023-10-31T06:18:27;13.05;;;6.60;;
59273;SDS011;45044;41.572;24.730;2023-10-31T06:20:55;10.60;;;6.43;;
59273;SDS011;45044;41.572;24.730;2023-10-31T06:23:22;9.63;;;5.97;;
59273;SDS011;45044;41.572;24.730;2023-10-31T06:25:48;11.90;;;6.80;;
59273;SDS011;45044;41.572;24.730;2023-10-31T06:28:16;10.20;;;6.10;;
59273;SDS011;45044;41.572;24.730;2023-10-31T06:30:42;10.45;;;6.53;;
59273;SDS011;45044;41.572;24.730;2023-10-31T06:33:09;14.00;;;7.13;;
59273;SDS011;45044;41.572;24.730;2023-10-31T06:35:37;11.52;;;7.00;;
59273;SDS011;45044;41.572;24.730;2023-10-31T06:38:04;8.77;;;6.28;;
59273;SDS011;45044;41.572;24.730;2023-10-31T06:40:31;15.68;;;8.85;;
59273;SDS011;45044;41.572;24.730;2023-10-31T06:42:57;14.75;;;9.98;;
59273;SDS011;45044;41.572;24.730;2023-10-31T06:45:25;11.82;;;8.85;;
59273;SDS011;45044;41.572;24.730;2023-10-31T06:47:52;14.20;;;8.75;;
59273;SDS011;45044;41.572;24.730;2023-10-31T06:50:20;14.68;;;8.73;;
59273;SDS011;45044;41.572;24.730;2023-10-31T06:52:47;16.65;;;10.32;;
59273;SDS011;45044;41.572;24.730;2023-10-31T06:55:14;14.13;;;8.52;;
59273;SDS011;45044;41.572;24.730;2023-10-31T06:57:41;15.45;;;8.88;;
59273;SDS011;45044;41.572;24.730;2023-10-31T07:00:10;11.32;;;6.10;;
59273;SDS011;45044;41.572;24.730;2023-10-31T07:02:38;11.45;;;4.40;;
59273;SDS011;45044;41.572;24.730;2023-10-31T07:05:07;6.13;;;4.20;;
59273;SDS011;45044;41.572;24.730;2023-10-31T07:07:34;7.47;;;4.30;;
59273;SDS011;45044;41.572;24.730;2023-10-31T07:10:01;7.88;;;4.45;;
59273;SDS011;45044;41.572;24.730;2023-10-31T07:12:28;7.78;;;4.25;;
59273;SDS011;45044;41.572;24.730;2023-10-31T07:14:55;8.32;;;4.57;;
59273;SDS011;45044;41.572;24.730;2023-10-31T07:17:21;6.38;;;3.67;;
59273;SDS011;45044;41.572;24.730;2023-10-31T07:19:48;6.63;;;3.40;;
59273;SDS011;45044;41.572;24.730;2023-10-31T07:22:15;7.30;;;3.65;;
59273;SDS011;45044;41.572;24.730;2023-10-31T07:24:41;10.05;;;4.00;;
59273;SDS011;45044;41.572;24.730;2023-10-31T07:27:09;7.13;;;3.72;;
59273;SDS011;45044;41.572;24.730;2023-10-31T07:29:38;8.85;;;3.63;;
59273;SDS011;45044;41.572;24.730;2023-10-31T07:32:07;4.78;;;2.60;;
59273;SDS011;45044;41.572;24.730;2023-10-31T07:34:36;6.22;;;3.25;;
59273;SDS011;45044;41.572;24.730;2023-10-31T07:37:06;6.35;;;3.25;;
59273;SDS011;45044;41.572;24.730;2023-10-31T07:39:33;6.28;;;2.80;;
59273;SDS011;45044;41.572;24.730;2023-10-31T07:42:00;4.68;;;3.28;;
59273;SDS011;45044;41.572;24.730;2023-10-31T07:44:26;6.85;;;3.58;;
59273;SDS011;45044;41.572;24.730;2023-10-31T07:46:53;6.88;;;4.68;;
59273;SDS011;45044;41.572;24.730;2023-10-31T07:49:20;7.93;;;4.70;;
59273;SDS011;45044;41.572;24.730;2023-10-31T07:51:47;7.72;;;4.60;;
59273;SDS011;45044;41.572;24.730;2023-10-31T07:54:14;7.38;;;3.00;;
59273;SDS011;45044;41.572;24.730;2023-10-31T07:56:42;6.28;;;3.17;;
59273;SDS011;45044;41.572;24.730;2023-10-31T07:59:09;4.65;;;1.55;;
59273;SDS011;45044;41.572;24.730;2023-10-31T08:01:37;6.18;;;3.20;;
59273;SDS011;45044;41.572;24.730;2023-10-31T08:04:04;10.05;;;4.32;;
59273;SDS011;45044;41.572;24.730;2023-10-31T08:06:31;6.13;;;3.47;;
59273;SDS011;45044;41.572;24.730;2023-10-31T08:08:58;5.57;;;2.17;;
59273;SDS011;45044;41.572;24.730;2023-10-31T08:11:25;4.53;;;2.42;;
59273;SDS011;45044;41.572;24.730;2023-10-31T08:13:52;3.92;;;1.80;;
59273;SDS011;45044;41.572;24.730;2023-10-31T08:16:19;4.15;;;1.50;;
59273;SDS011;45044;41.572;24.730;2023-10-31T08:18:46;0.55;;;0.50;;
59273;SDS011;45044;41.572;24.730;2023-10-31T08:21:15;2.38;;;0.80;;
59273;SDS011;45044;41.572;24.730;2023-10-31T08:23:41;1.52;;;0.50;;
59273;SDS011;45044;41.572;24.730;2023-10-31T08:26:11;1.85;;;1.08;;
59273;SDS011;45044;41.572;24.730;2023-10-31T08:28:39;1.30;;;0.95;;
59273;SDS011;45044;41.572;24.730;2023-10-31T08:31:07;2.70;;;1.05;;
59273;SDS011;45044;41.572;24.730;2023-10-31T08:33:34;1.40;;;0.50;;
59273;SDS011;45044;41.572;24.730;2023-10-31T08:36:01;2.67;;;0.80;;
59273;SDS011;45044;41.572;24.730;2023-10-31T08:38:28;2.10;;;0.65;;
59273;SDS011;45044;41.572;24.730;2023-10-31T08:40:58;0.85;;;0.50;;
59273;SDS011;45044;41.572;24.730;2023-10-31T08:43:26;4.50;;;1.00;;
59273;SDS011;45044;41.572;24.730;2023-10-31T08:45:53;2.88;;;0.68;;
59273;SDS011;45044;41.572;24.730;2023-10-31T08:48:20;1.40;;;0.70;;
59273;SDS011;45044;41.572;24.730;2023-10-31T08:50:47;0.88;;;0.50;;
59273;SDS011;45044;41.572;24.730;2023-10-31T08:53:14;1.13;;;0.50;;
59273;SDS011;45044;41.572;24.730;2023-10-31T08:55:41;1.45;;;0.60;;
59273;SDS011;45044;41.572;24.730;2023-10-31T08:58:11;1.83;;;0.60;;
59273;SDS011;45044;41.572;24.730;2023-10-31T09:00:39;2.42;;;0.60;;
59273;SDS011;45044;41.572;24.730;2023-10-31T09:03:09;1.67;;;0.63;;
59273;SDS011;45044;41.572;24.730;2023-10-31T09:05:36;3.55;;;0.90;;
59273;SDS011;45044;41.572;24.730;2023-10-31T09:08:03;0.65;;;0.40;;
59273;SDS011;45044;41.572;24.730;2023-10-31T09:10:32;3.83;;;1.25;;
59273;SDS011;45044;41.572;24.730;2023-10-31T09:13:00;0.52;;;0.50;;
59273;SDS011;45044;41.572;24.730;2023-10-31T09:15:28;2.75;;;0.50;;
59273;SDS011;45044;41.572;24.730;2023-10-31T09:17:55;1.15;;;0.40;;
59273;SDS011;45044;41.572;24.730;2023-10-31T09:20:22;1.40;;;1.13;;
59273;SDS011;45044;41.572;24.730;2023-10-31T09:22:48;2.88;;;0.60;;
59273;SDS011;45044;41.572;24.730;2023-10-31T09:25:15;2.78;;;0.50;;
59273;SDS011;45044;41.572;24.730;2023-10-31T09:27:42;1.05;;;0.60;;
59273;SDS011;45044;41.572;24.730;2023-10-31T09:30:09;5.15;;;1.42;;
59273;SDS011;45044;41.572;24.730;2023-10-31T09:32:38;1.17;;;0.47;;
59273;SDS011;45044;41.572;24.730;2023-10-31T09:35:05;1.63;;;0.73;;
59273;SDS011;45044;41.572;24.730;2023-10-31T09:37:34;3.35;;;0.60;;
59273;SDS011;45044;41.572;24.730;2023-10-31T09:40:01;1.10;;;0.80;;
59273;SDS011;45044;41.572;24.730;2023-10-31T09:42:28;1.35;;;0.68;;
59273;SDS011;45044;41.572;24.730;2023-10-31T09:44:55;3.38;;;0.70;;
59273;SDS011;45044;41.572;24.730;2023-10-31T09:47:22;1.42;;;0.70;;
59273;SDS011;45044;41.572;24.730;2023-10-31T09:49:49;0.95;;;0.55;;
59273;SDS011;45044;41.572;24.730;2023-10-31T09:52:16;1.65;;;0.60;;
59273;SDS011;45044;41.572;24.730;2023-10-31T09:54:43;2.08;;;0.90;;
59273;SDS011;45044;41.572;24.730;2023-10-31T09:57:12;2.40;;;0.85;;
59273;SDS011;45044;41.572;24.730;2023-10-31T09:59:40;4.07;;;0.68;;
59273;SDS011;45044;41.572;24.730;2023-10-31T10:02:07;0.60;;;0.47;;
59273;SDS011;45044;41.572;24.730;2023-10-31T10:04:34;1.67;;;0.82;;
59273;SDS011;45044;41.572;24.730;2023-10-31T10:07:03;1.20;;;0.50;;
59273;SDS011;45044;41.572;24.730;2023-10-31T10:09:30;1.63;;;0.65;;
59273;SDS011;45044;41.572;24.730;2023-10-31T10:11:58;0.82;;;0.57;;
59273;SDS011;45044;41.572;24.730;2023-10-31T10:14:26;0.50;;;0.50;;
59273;SDS011;45044;41.572;24.730;2023-10-31T10:16:55;0.82;;;0.40;;
59273;SDS011;45044;41.572;24.730;2023-10-31T10:19:22;0.73;;;0.40;;
59273;SDS011;45044;41.572;24.730;2023-10-31T10:21:50;1.20;;;0.50;;
59273;SDS011;45044;41.572;24.730;2023-10-31T10:24:18;0.77;;;0.43;;
59273;SDS011;45044;41.572;24.730;2023-10-31T10:26:45;0.75;;;0.40;;
59273;SDS011;45044;41.572;24.730;2023-10-31T10:29:12;1.30;;;0.50;;
59273;SDS011;45044;41.572;24.730;2023-10-31T10:31:40;0.95;;;0.40;;
59273;SDS011;45044;41.572;24.730;2023-10-31T10:34:13;0.45;;;0.30;;
59273;SDS011;45044;41.572;24.730;2023-10-31T10:36:41;2.60;;;0.60;;
59273;SDS011;45044;41.572;24.730;2023-10-31T10:39:21;1.25;;;0.75;;
59273;SDS011;45044;41.572;24.730;2023-10-31T10:41:51;3.35;;;0.75;;
59273;SDS011;45044;41.572;24.730;2023-10-31T10:44:28;1.75;;;0.50;;
59273;SDS011;45044;41.572;24.730;2023-10-31T10:47:01;1.45;;;0.38;;
59273;SDS011;45044;41.572;24.730;2023-10-31T10:49:32;2.22;;;0.60;;
59273;SDS011;45044;41.572;24.730;2023-10-31T10:55:03;1.55;;;0.50;;
59273;SDS011;45044;41.572;24.730;2023-10-31T11:00:23;0.77;;;0.60;;
59273;SDS011;45044;41.572;24.730;2023-10-31T11:02:52;1.00;;;0.70;;
59273;SDS011;45044;41.572;24.730;2023-10-31T11:05:20;0.57;;;0.50;;
59273;SDS011;45044;41.572;24.730;2023-10-31T11:07:47;1.08;;;0.40;;
59273;SDS011;45044;41.572;24.730;2023-10-31T11:10:15;1.05;;;0.57;;
59273;SDS011;45044;41.572;24.730;2023-10-31T11:12:43;1.48;;;0.30;;
59273;SDS011;45044;41.572;24.730;2023-10-31T11:15:11;0.60;;;0.40;;
59273;SDS011;45044;41.572;24.730;2023-10-31T11:17:42;1.50;;;0.60;;
59273;SDS011;45044;41.572;24.730;2023-10-31T11:20:12;1.48;;;0.60;;
59273;SDS011;45044;41.572;24.730;2023-10-31T11:22:45;2.58;;;0.70;;
59273;SDS011;45044;41.572;24.730;2023-10-31T11:25:13;2.85;;;1.00;;
59273;SDS011;45044;41.572;24.730;2023-10-31T11:27:54;1.27;;;0.43;;
59273;SDS011;45044;41.572;24.730;2023-10-31T11:30:29;2.58;;;1.13;;
59273;SDS011;45044;41.572;24.730;2023-10-31T11:33:00;1.85;;;0.80;;
59273;SDS011;45044;41.572;24.730;2023-10-31T11:35:32;1.38;;;0.65;;
59273;SDS011;45044;41.572;24.730;2023-10-31T11:38:01;1.08;;;0.50;;
59273;SDS011;45044;41.572;24.730;2023-10-31T11:40:35;2.53;;;1.13;;
59273;SDS011;45044;41.572;24.730;2023-10-31T11:43:06;1.85;;;0.57;;
59273;SDS011;45044;41.572;24.730;2023-10-31T11:45:35;2.03;;;0.52;;
59273;SDS011;45044;41.572;24.730;2023-10-31T11:48:08;1.33;;;0.80;;
59273;SDS011;45044;41.572;24.730;2023-10-31T11:50:37;1.83;;;0.70;;
59273;SDS011;45044;41.572;24.730;2023-10-31T11:53:08;2.13;;;0.68;;
59273;SDS011;45044;41.572;24.730;2023-10-31T11:55:47;2.75;;;0.70;;
59273;SDS011;45044;41.572;24.730;2023-10-31T12:01:06;1.13;;;0.60;;
59273;SDS011;45044;41.572;24.730;2023-10-31T12:03:43;2.22;;;0.80;;
59273;SDS011;45044;41.572;24.730;2023-10-31T12:06:17;1.10;;;0.52;;
59273;SDS011;45044;41.572;24.730;2023-10-31T12:08:46;1.02;;;0.70;;
59273;SDS011;45044;41.572;24.730;2023-10-31T12:11:18;2.90;;;0.77;;
59273;SDS011;45044;41.572;24.730;2023-10-31T12:14:00;2.38;;;0.65;;
59273;SDS011;45044;41.572;24.730;2023-10-31T12:16:30;1.30;;;0.70;;
59273;SDS011;45044;41.572;24.730;2023-10-31T12:19:02;3.58;;;0.93;;
59273;SDS011;45044;41.572;24.730;2023-10-31T12:21:39;1.70;;;0.93;;
59273;SDS011;45044;41.572;24.730;2023-10-31T12:24:17;2.35;;;1.10;;
59273;SDS011;45044;41.572;24.730;2023-10-31T12:26:45;1.23;;;0.70;;
59273;SDS011;45044;41.572;24.730;2023-10-31T12:29:19;1.27;;;0.73;;
59273;SDS011;45044;41.572;24.730;2023-10-31T12:31:53;1.63;;;0.68;;
59273;SDS011;45044;41.572;24.730;2023-10-31T12:34:21;4.83;;;0.93;;
59273;SDS011;45044;41.572;24.730;2023-10-31T12:36:50;2.15;;;0.90;;
59273;SDS011;45044;41.572;24.730;2023-10-31T12:39:21;1.98;;;0.82;;
59273;SDS011;45044;41.572;24.730;2023-10-31T12:41:49;1.95;;;0.88;;
59273;SDS011;45044;41.572;24.730;2023-10-31T12:44:21;2.03;;;0.70;;
59273;SDS011;45044;41.572;24.730;2023-10-31T12:46:55;2.25;;;0.88;;
59273;SDS011;45044;41.572;24.730;2023-10-31T12:49:22;0.73;;;0.50;;
59273;SDS011;45044;41.572;24.730;2023-10-31T12:52:00;2.35;;;0.80;;
59273;SDS011;45044;41.572;24.730;2023-10-31T12:54:28;2.40;;;0.75;;
59273;SDS011;45044;41.572;24.730;2023-10-31T12:57:02;2.35;;;0.82;;
59273;SDS011;45044;41.572;24.730;2023-10-31T12:59:34;1.60;;;0.70;;
59273;SDS011;45044;41.572;24.730;2023-10-31T13:02:02;1.27;;;0.63;;
59273;SDS011;45044;41.572;24.730;2023-10-31T13:04:31;1.27;;;0.60;;
59273;SDS011;45044;41.572;24.730;2023-10-31T13:07:02;1.73;;;0.70;;
59273;SDS011;45044;41.572;24.730;2023-10-31T13:09:34;2.83;;;0.80;;
59273;SDS011;45044;41.572;24.730;2023-10-31T13:12:03;1.05;;;0.70;;
59273;SDS011;45044;41.572;24.730;2023-10-31T13:14:31;2.00;;;0.75;;
59273;SDS011;45044;41.572;24.730;2023-10-31T13:16:58;2.60;;;0.68;;
59273;SDS011;45044;41.572;24.730;2023-10-31T13:19:26;2.22;;;0.88;;
59273;SDS011;45044;41.572;24.730;2023-10-31T13:21:53;2.50;;;1.10;;
59273;SDS011;45044;41.572;24.730;2023-10-31T13:24:20;1.52;;;0.75;;
59273;SDS011;45044;41.572;24.730;2023-10-31T13:26:47;1.52;;;0.80;;
59273;SDS011;45044;41.572;24.730;2023-10-31T13:29:19;1.73;;;0.68;;
59273;SDS011;45044;41.572;24.730;2023-10-31T13:31:46;1.63;;;0.85;;
59273;SDS011;45044;41.572;24.730;2023-10-31T13:34:14;3.40;;;0.77;;
59273;SDS011;45044;41.572;24.730;2023-10-31T13:36:41;2.72;;;0.98;;
59273;SDS011;45044;41.572;24.730;2023-10-31T13:39:09;3.95;;;0.90;;
59273;SDS011;45044;41.572;24.730;2023-10-31T13:41:36;1.48;;;0.70;;
59273;SDS011;45044;41.572;24.730;2023-10-31T13:44:03;3.15;;;1.02;;
59273;SDS011;45044;41.572;24.730;2023-10-31T13:46:30;4.07;;;1.23;;
59273;SDS011;45044;41.572;24.730;2023-10-31T13:48:56;2.03;;;1.00;;
59273;SDS011;45044;41.572;24.730;2023-10-31T13:51:23;2.22;;;1.00;;
59273;SDS011;45044;41.572;24.730;2023-10-31T13:53:50;2.83;;;1.10;;
59273;SDS011;45044;41.572;24.730;2023-10-31T13:56:17;2.22;;;1.10;;
59273;SDS011;45044;41.572;24.730;2023-10-31T13:58:44;2.85;;;1.00;;
59273;SDS011;45044;41.572;24.730;2023-10-31T14:01:11;1.95;;;1.00;;
59273;SDS011;45044;41.572;24.730;2023-10-31T14:03:37;2.85;;;1.08;;
59273;SDS011;45044;41.572;24.730;2023-10-31T14:06:05;4.28;;;1.90;;
59273;SDS011;45044;41.572;24.730;2023-10-31T14:08:32;3.97;;;1.27;;
59273;SDS011;45044;41.572;24.730;2023-10-31T14:10:59;3.05;;;1.10;;
59273;SDS011;45044;41.572;24.730;2023-10-31T14:13:27;1.80;;;1.02;;
59273;SDS011;45044;41.572;24.730;2023-10-31T14:15:54;5.85;;;1.30;;
59273;SDS011;45044;41.572;24.730;2023-10-31T14:18:21;4.20;;;0.95;;
59273;SDS011;45044;41.572;24.730;2023-10-31T14:20:47;2.78;;;1.00;;
59273;SDS011;45044;41.572;24.730;2023-10-31T14:23:14;2.70;;;1.00;;
59273;SDS011;45044;41.572;24.730;2023-10-31T14:25:41;2.90;;;1.00;;
59273;SDS011;45044;41.572;24.730;2023-10-31T14:28:09;2.55;;;1.10;;
59273;SDS011;45044;41.572;24.730;2023-10-31T14:30:36;3.20;;;1.38;;
59273;SDS011;45044;41.572;24.730;2023-10-31T14:33:03;2.35;;;0.98;;
59273;SDS011;45044;41.572;24.730;2023-10-31T14:35:30;3.67;;;1.00;;
59273;SDS011;45044;41.572;24.730;2023-10-31T14:37:57;2.72;;;1.00;;
59273;SDS011;45044;41.572;24.730;2023-10-31T14:40:23;2.75;;;0.95;;